sensor_id;sensor_type;location;lat;lon;timestamp;temperature;humidity
9820;DHT22;4949;48.482;9.206;2023-02-28T00:02:03;0.60;54.90
9820;DHT22;4949;48.482;9.206;2023-02-28T00:07:08;0.70;55.00
9820;DHT22;4949;48.482;9.206;2023-02-28T00:12:09;0.80;55.40
9820;DHT22;4949;48.482;9.206;2023-02-28T00:17:12;0.50;55.50
9820;DHT22;4949;48.482;9.206;2023-02-28T00:22:13;0.50;55.90
9820;DHT22;4949;48.482;9.206;2023-02-28T00:27:17;0.60;55.90
9820;DHT22;4949;48.482;9.206;2023-02-28T00:32:18;0.50;56.00
9820;DHT22;4949;48.482;9.206;2023-02-28T00:37:20;0.80;57.10
9820;DHT22;4949;48.482;9.206;2023-02-28T00:42:23;0.00;56.70
9820;DHT22;4949;48.482;9.206;2023-02-28T00:47:25;0.40;56.90
9820;DHT22;4949;48.482;9.206;2023-02-28T00:52:26;0.10;57.00
9820;DHT22;4949;48.482;9.206;2023-02-28T00:57:29;0.40;57.10
9820;DHT22;4949;48.482;9.206;2023-02-28T01:02:35;0.30;57.10
9820;DHT22;4949;48.482;9.206;2023-02-28T01:07:36;0.40;57.80
9820;DHT22;4949;48.482;9.206;2023-02-28T01:12:39;0.30;57.70
9820;DHT22;4949;48.482;9.206;2023-02-28T01:17:39;0.20;59.00
9820;DHT22;4949;48.482;9.206;2023-02-28T01:22:40;0.30;58.90
9820;DHT22;4949;48.482;9.206;2023-02-28T01:27:41;0.30;59.30
9820;DHT22;4949;48.482;9.206;2023-02-28T01:32:42;0.30;59.60
9820;DHT22;4949;48.482;9.206;2023-02-28T01:37:42;0.20;60.20
9820;DHT22;4949;48.482;9.206;2023-02-28T01:42:43;0.20;60.70
9820;DHT22;4949;48.482;9.206;2023-02-28T01:47:44;0.10;61.40
9820;DHT22;4949;48.482;9.206;2023-02-28T01:52:48;0.10;61.90
9820;DHT22;4949;48.482;9.206;2023-02-28T01:58:04;0.20;63.10
9820;DHT22;4949;48.482;9.206;2023-02-28T02:03:14;-0.10;62.90
9820;DHT22;4949;48.482;9.206;2023-02-28T02:08:23;0.00;63.30
9820;DHT22;4949;48.482;9.206;2023-02-28T02:18:57;0.00;62.90
9820;DHT22;4949;48.482;9.206;2023-02-28T02:45:34;-0.20;63.80
9820;DHT22;4949;48.482;9.206;2023-02-28T02:50:56;-0.30;64.10
9820;DHT22;4949;48.482;9.206;2023-02-28T02:56:01;-0.30;64.80
9820;DHT22;4949;48.482;9.206;2023-02-28T03:01:12;-0.30;64.70
9820;DHT22;4949;48.482;9.206;2023-02-28T03:06:15;-0.20;64.60
9820;DHT22;4949;48.482;9.206;2023-02-28T03:11:19;-0.20;65.00
9820;DHT22;4949;48.482;9.206;2023-02-28T03:27:21;-0.10;64.60
9820;DHT22;4949;48.482;9.206;2023-02-28T03:32:39;-0.10;64.40
9820;DHT22;4949;48.482;9.206;2023-02-28T03:38:01;-0.10;64.00
9820;DHT22;4949;48.482;9.206;2023-02-28T03:43:29;0.00;64.20
9820;DHT22;4949;48.482;9.206;2023-02-28T03:48:44;-0.10;64.80
9820;DHT22;4949;48.482;9.206;2023-02-28T03:53:57;-0.10;65.80
9820;DHT22;4949;48.482;9.206;2023-02-28T03:59:10;-0.10;65.30
9820;DHT22;4949;48.482;9.206;2023-02-28T04:04:13;0.00;65.10
9820;DHT22;4949;48.482;9.206;2023-02-28T04:09:17;0.00;65.40
9820;DHT22;4949;48.482;9.206;2023-02-28T04:14:20;0.00;65.30
9820;DHT22;4949;48.482;9.206;2023-02-28T04:19:26;0.00;64.90
9820;DHT22;4949;48.482;9.206;2023-02-28T04:24:32;0.00;64.90
9820;DHT22;4949;48.482;9.206;2023-02-28T04:29:35;0.00;65.20
9820;DHT22;4949;48.482;9.206;2023-02-28T04:34:38;0.00;65.40
9820;DHT22;4949;48.482;9.206;2023-02-28T04:39:43;0.40;65.30
9820;DHT22;4949;48.482;9.206;2023-02-28T04:44:46;0.10;64.60
9820;DHT22;4949;48.482;9.206;2023-02-28T04:49:52;0.10;65.00
9820;DHT22;4949;48.482;9.206;2023-02-28T04:54:55;0.00;65.30
9820;DHT22;4949;48.482;9.206;2023-02-28T04:59:58;0.20;64.90
9820;DHT22;4949;48.482;9.206;2023-02-28T05:04:59;0.20;64.60
9820;DHT22;4949;48.482;9.206;2023-02-28T05:10:07;0.10;64.80
9820;DHT22;4949;48.482;9.206;2023-02-28T05:15:13;0.10;65.10
9820;DHT22;4949;48.482;9.206;2023-02-28T05:20:14;0.10;65.10
9820;DHT22;4949;48.482;9.206;2023-02-28T05:25:19;0.10;65.60
9820;DHT22;4949;48.482;9.206;2023-02-28T05:30:22;0.10;65.80
9820;DHT22;4949;48.482;9.206;2023-02-28T05:35:23;0.10;66.00
9820;DHT22;4949;48.482;9.206;2023-02-28T05:40:27;0.10;65.40
9820;DHT22;4949;48.482;9.206;2023-02-28T05:45:27;0.10;65.60
9820;DHT22;4949;48.482;9.206;2023-02-28T05:50:30;0.10;66.10
9820;DHT22;4949;48.482;9.206;2023-02-28T05:55:36;0.20;65.70
9820;DHT22;4949;48.482;9.206;2023-02-28T06:00:37;0.20;65.20
9820;DHT22;4949;48.482;9.206;2023-02-28T06:05:40;0.20;65.30
9820;DHT22;4949;48.482;9.206;2023-02-28T06:10:41;0.30;65.10
9820;DHT22;4949;48.482;9.206;2023-02-28T06:15:44;0.30;65.10
9820;DHT22;4949;48.482;9.206;2023-02-28T06:20:56;0.30;64.80
9820;DHT22;4949;48.482;9.206;2023-02-28T06:25:59;0.30;64.90
9820;DHT22;4949;48.482;9.206;2023-02-28T06:31:15;0.30;64.90
9820;DHT22;4949;48.482;9.206;2023-02-28T06:36:20;0.40;64.50
9820;DHT22;4949;48.482;9.206;2023-02-28T06:41:25;0.40;64.20
9820;DHT22;4949;48.482;9.206;2023-02-28T06:46:27;0.40;64.20
9820;DHT22;4949;48.482;9.206;2023-02-28T06:51:27;0.40;64.20
9820;DHT22;4949;48.482;9.206;2023-02-28T06:56:31;0.40;64.40
9820;DHT22;4949;48.482;9.206;2023-02-28T07:01:31;0.40;64.50
9820;DHT22;4949;48.482;9.206;2023-02-28T07:06:33;0.40;64.70
9820;DHT22;4949;48.482;9.206;2023-02-28T07:11:37;0.40;64.60
9820;DHT22;4949;48.482;9.206;2023-02-28T07:16:38;0.40;64.30
9820;DHT22;4949;48.482;9.206;2023-02-28T07:21:44;0.50;63.50
9820;DHT22;4949;48.482;9.206;2023-02-28T07:26:48;0.50;63.10
9820;DHT22;4949;48.482;9.206;2023-02-28T07:31:51;0.60;62.20
9820;DHT22;4949;48.482;9.206;2023-02-28T07:36:54;0.50;62.10
9820;DHT22;4949;48.482;9.206;2023-02-28T07:41:57;0.50;61.30
9820;DHT22;4949;48.482;9.206;2023-02-28T07:47:02;0.50;60.90
9820;DHT22;4949;48.482;9.206;2023-02-28T07:52:05;0.40;61.70
9820;DHT22;4949;48.482;9.206;2023-02-28T07:57:06;0.30;61.30
9820;DHT22;4949;48.482;9.206;2023-02-28T08:02:17;0.20;61.90
9820;DHT22;4949;48.482;9.206;2023-02-28T08:07:18;0.40;61.80
9820;DHT22;4949;48.482;9.206;2023-02-28T08:12:21;0.40;61.90
9820;DHT22;4949;48.482;9.206;2023-02-28T08:17:22;0.80;62.20
9820;DHT22;4949;48.482;9.206;2023-02-28T08:22:23;0.30;61.40
9820;DHT22;4949;48.482;9.206;2023-02-28T08:27:26;0.60;61.50
9820;DHT22;4949;48.482;9.206;2023-02-28T08:32:26;0.60;61.00
9820;DHT22;4949;48.482;9.206;2023-02-28T08:37:27;0.70;61.30
9820;DHT22;4949;48.482;9.206;2023-02-28T08:42:28;0.70;61.00
9820;DHT22;4949;48.482;9.206;2023-02-28T08:47:29;0.70;60.80
9820;DHT22;4949;48.482;9.206;2023-02-28T08:52:29;0.70;60.80
9820;DHT22;4949;48.482;9.206;2023-02-28T08:57:33;0.70;61.20
9820;DHT22;4949;48.482;9.206;2023-02-28T09:02:34;0.80;61.10
9820;DHT22;4949;48.482;9.206;2023-02-28T09:07:37;0.90;60.60
9820;DHT22;4949;48.482;9.206;2023-02-28T09:12:39;1.00;60.40
9820;DHT22;4949;48.482;9.206;2023-02-28T09:17:40;1.20;60.20
9820;DHT22;4949;48.482;9.206;2023-02-28T09:22:40;1.00;60.10
9820;DHT22;4949;48.482;9.206;2023-02-28T09:27:44;1.00;59.80
9820;DHT22;4949;48.482;9.206;2023-02-28T09:32:47;1.00;60.10
9820;DHT22;4949;48.482;9.206;2023-02-28T09:37:53;1.10;60.10
9820;DHT22;4949;48.482;9.206;2023-02-28T09:42:59;1.10;59.80
9820;DHT22;4949;48.482;9.206;2023-02-28T09:48:14;1.10;59.90
9820;DHT22;4949;48.482;9.206;2023-02-28T09:53:36;1.10;59.50
9820;DHT22;4949;48.482;9.206;2023-02-28T10:04:11;1.20;59.40
9820;DHT22;4949;48.482;9.206;2023-02-28T10:09:29;1.20;59.50
9820;DHT22;4949;48.482;9.206;2023-02-28T10:14:33;1.30;60.30
9820;DHT22;4949;48.482;9.206;2023-02-28T10:24:51;1.80;59.00
9820;DHT22;4949;48.482;9.206;2023-02-28T10:29:56;1.60;59.00
9820;DHT22;4949;48.482;9.206;2023-02-28T10:45:24;1.90;58.40
9820;DHT22;4949;48.482;9.206;2023-02-28T10:50:36;2.00;58.00
9820;DHT22;4949;48.482;9.206;2023-02-28T11:01:00;2.20;56.70
9820;DHT22;4949;48.482;9.206;2023-02-28T11:06:08;2.30;56.40
9820;DHT22;4949;48.482;9.206;2023-02-28T11:11:21;2.30;56.50
9820;DHT22;4949;48.482;9.206;2023-02-28T11:16:33;2.50;56.20
9820;DHT22;4949;48.482;9.206;2023-02-28T11:21:37;2.50;56.20
9820;DHT22;4949;48.482;9.206;2023-02-28T11:26:47;2.70;57.00
9820;DHT22;4949;48.482;9.206;2023-02-28T11:37:17;3.40;55.00
9820;DHT22;4949;48.482;9.206;2023-02-28T11:42:35;3.70;54.40
9820;DHT22;4949;48.482;9.206;2023-02-28T12:25:50;7.00;46.10
9820;DHT22;4949;48.482;9.206;2023-02-28T12:31:18;7.10;46.10
9820;DHT22;4949;48.482;9.206;2023-02-28T12:36:23;7.30;44.50
9820;DHT22;4949;48.482;9.206;2023-02-28T12:47:15;7.10;45.40
9820;DHT22;4949;48.482;9.206;2023-02-28T12:57:48;8.60;43.50
9820;DHT22;4949;48.482;9.206;2023-02-28T13:03:15;8.90;42.60
9820;DHT22;4949;48.482;9.206;2023-02-28T13:19:29;9.20;41.50
9820;DHT22;4949;48.482;9.206;2023-02-28T13:29:46;8.60;42.60
9820;DHT22;4949;48.482;9.206;2023-02-28T14:06:32;9.20;41.20
9820;DHT22;4949;48.482;9.206;2023-02-28T14:11:34;9.20;41.20
9820;DHT22;4949;48.482;9.206;2023-02-28T14:27:24;9.50;40.80
9820;DHT22;4949;48.482;9.206;2023-02-28T14:38:17;9.70;40.90
9820;DHT22;4949;48.482;9.206;2023-02-28T14:43:27;10.20;39.50
9820;DHT22;4949;48.482;9.206;2023-02-28T14:48:28;10.10;38.90
9820;DHT22;4949;48.482;9.206;2023-02-28T14:53:37;10.30;38.70
9820;DHT22;4949;48.482;9.206;2023-02-28T14:58:40;10.30;38.40
9820;DHT22;4949;48.482;9.206;2023-02-28T15:04:04;10.40;37.90
9820;DHT22;4949;48.482;9.206;2023-02-28T15:09:17;10.40;37.80
9820;DHT22;4949;48.482;9.206;2023-02-28T15:14:20;10.50;37.30
9820;DHT22;4949;48.482;9.206;2023-02-28T15:19:23;10.50;37.20
9820;DHT22;4949;48.482;9.206;2023-02-28T15:24:52;10.30;37.80
9820;DHT22;4949;48.482;9.206;2023-02-28T15:30:14;10.10;38.60
9820;DHT22;4949;48.482;9.206;2023-02-28T15:40:37;10.10;38.70
9820;DHT22;4949;48.482;9.206;2023-02-28T15:50:48;10.00;38.20
9820;DHT22;4949;48.482;9.206;2023-02-28T15:56:00;10.00;38.00
9820;DHT22;4949;48.482;9.206;2023-02-28T16:11:45;9.10;41.00
9820;DHT22;4949;48.482;9.206;2023-02-28T16:16:52;9.10;41.20
9820;DHT22;4949;48.482;9.206;2023-02-28T16:21:54;8.70;42.50
9820;DHT22;4949;48.482;9.206;2023-02-28T16:26:56;8.80;42.20
9820;DHT22;4949;48.482;9.206;2023-02-28T16:32:00;8.40;42.20
9820;DHT22;4949;48.482;9.206;2023-02-28T16:37:10;8.30;42.70
9820;DHT22;4949;48.482;9.206;2023-02-28T16:42:25;8.00;43.30
9820;DHT22;4949;48.482;9.206;2023-02-28T16:47:29;7.60;43.60
9820;DHT22;4949;48.482;9.206;2023-02-28T16:52:33;7.40;44.00
9820;DHT22;4949;48.482;9.206;2023-02-28T16:57:37;7.20;44.40
9820;DHT22;4949;48.482;9.206;2023-02-28T17:02:38;6.90;45.30
9820;DHT22;4949;48.482;9.206;2023-02-28T17:07:40;6.80;45.60
9820;DHT22;4949;48.482;9.206;2023-02-28T17:12:47;6.60;46.10
9820;DHT22;4949;48.482;9.206;2023-02-28T17:17:52;6.30;47.40
9820;DHT22;4949;48.482;9.206;2023-02-28T17:22:56;5.90;47.70
9820;DHT22;4949;48.482;9.206;2023-02-28T17:27:59;6.10;48.10
9820;DHT22;4949;48.482;9.206;2023-02-28T17:33:03;5.90;48.00
9820;DHT22;4949;48.482;9.206;2023-02-28T17:38:03;5.90;48.20
9820;DHT22;4949;48.482;9.206;2023-02-28T17:43:07;5.80;48.60
9820;DHT22;4949;48.482;9.206;2023-02-28T17:48:11;5.60;49.10
9820;DHT22;4949;48.482;9.206;2023-02-28T17:53:13;5.50;49.50
9820;DHT22;4949;48.482;9.206;2023-02-28T17:58:16;5.60;50.20
9820;DHT22;4949;48.482;9.206;2023-02-28T18:03:20;5.40;50.30
9820;DHT22;4949;48.482;9.206;2023-02-28T18:08:27;5.30;50.40
9820;DHT22;4949;48.482;9.206;2023-02-28T18:13:30;5.40;50.50
9820;DHT22;4949;48.482;9.206;2023-02-28T18:18:30;5.20;50.90
9820;DHT22;4949;48.482;9.206;2023-02-28T18:23:31;5.10;51.30
9820;DHT22;4949;48.482;9.206;2023-02-28T18:28:35;5.00;51.80
9820;DHT22;4949;48.482;9.206;2023-02-28T18:33:43;5.00;52.00
9820;DHT22;4949;48.482;9.206;2023-02-28T18:38:48;4.80;52.10
9820;DHT22;4949;48.482;9.206;2023-02-28T18:43:51;4.60;52.80
9820;DHT22;4949;48.482;9.206;2023-02-28T18:48:53;4.60;53.20
9820;DHT22;4949;48.482;9.206;2023-02-28T18:53:57;4.40;53.20
9820;DHT22;4949;48.482;9.206;2023-02-28T18:59:00;4.30;53.60
9820;DHT22;4949;48.482;9.206;2023-02-28T19:04:04;4.30;54.00
9820;DHT22;4949;48.482;9.206;2023-02-28T19:09:09;4.10;54.20
9820;DHT22;4949;48.482;9.206;2023-02-28T19:14:15;3.90;54.70
9820;DHT22;4949;48.482;9.206;2023-02-28T19:19:16;3.80;55.20
9820;DHT22;4949;48.482;9.206;2023-02-28T19:24:16;3.70;55.70
9820;DHT22;4949;48.482;9.206;2023-02-28T19:29:17;3.50;56.00
9820;DHT22;4949;48.482;9.206;2023-02-28T19:34:18;3.40;56.40
9820;DHT22;4949;48.482;9.206;2023-02-28T19:39:23;3.40;56.80
9820;DHT22;4949;48.482;9.206;2023-02-28T19:44:27;3.30;57.20
9820;DHT22;4949;48.482;9.206;2023-02-28T19:49:30;3.20;57.40
9820;DHT22;4949;48.482;9.206;2023-02-28T19:54:31;3.20;57.70
9820;DHT22;4949;48.482;9.206;2023-02-28T19:59:37;3.10;57.90
9820;DHT22;4949;48.482;9.206;2023-02-28T20:04:38;2.90;58.50
9820;DHT22;4949;48.482;9.206;2023-02-28T20:09:41;2.80;59.10
9820;DHT22;4949;48.482;9.206;2023-02-28T20:14:44;2.80;59.70
9820;DHT22;4949;48.482;9.206;2023-02-28T20:19:44;2.70;60.20
9820;DHT22;4949;48.482;9.206;2023-02-28T20:24:52;2.70;60.00
9820;DHT22;4949;48.482;9.206;2023-02-28T20:29:58;2.50;60.40
9820;DHT22;4949;48.482;9.206;2023-02-28T20:35:01;2.40;60.60
9820;DHT22;4949;48.482;9.206;2023-02-28T20:40:08;2.40;60.50
9820;DHT22;4949;48.482;9.206;2023-02-28T20:45:14;2.20;61.10
9820;DHT22;4949;48.482;9.206;2023-02-28T20:50:17;2.30;61.50
9820;DHT22;4949;48.482;9.206;2023-02-28T20:55:21;2.20;61.90
9820;DHT22;4949;48.482;9.206;2023-02-28T21:00:22;2.10;61.80
9820;DHT22;4949;48.482;9.206;2023-02-28T21:05:25;2.00;62.00
9820;DHT22;4949;48.482;9.206;2023-02-28T21:10:28;1.90;62.30
9820;DHT22;4949;48.482;9.206;2023-02-28T21:15:36;1.90;62.60
9820;DHT22;4949;48.482;9.206;2023-02-28T21:20:40;1.80;62.50
9820;DHT22;4949;48.482;9.206;2023-02-28T21:25:41;1.80;63.00
9820;DHT22;4949;48.482;9.206;2023-02-28T21:30:47;1.70;63.00
9820;DHT22;4949;48.482;9.206;2023-02-28T21:35:48;1.60;64.20
9820;DHT22;4949;48.482;9.206;2023-02-28T21:40:55;1.70;63.80
9820;DHT22;4949;48.482;9.206;2023-02-28T21:46:00;1.60;63.80
9820;DHT22;4949;48.482;9.206;2023-02-28T21:51:06;1.50;64.00
9820;DHT22;4949;48.482;9.206;2023-02-28T21:56:33;1.40;64.10
9820;DHT22;4949;48.482;9.206;2023-02-28T22:01:38;1.30;64.30
9820;DHT22;4949;48.482;9.206;2023-02-28T22:06:47;1.30;64.90
9820;DHT22;4949;48.482;9.206;2023-02-28T22:11:52;1.20;65.00
9820;DHT22;4949;48.482;9.206;2023-02-28T22:16:53;1.10;65.30
9820;DHT22;4949;48.482;9.206;2023-02-28T22:21:58;1.10;65.10
9820;DHT22;4949;48.482;9.206;2023-02-28T22:26:59;1.00;65.20
9820;DHT22;4949;48.482;9.206;2023-02-28T22:32:02;1.40;66.20
9820;DHT22;4949;48.482;9.206;2023-02-28T22:37:10;0.90;65.40
9820;DHT22;4949;48.482;9.206;2023-02-28T22:42:11;0.80;66.20
9820;DHT22;4949;48.482;9.206;2023-02-28T22:47:15;0.70;66.40
9820;DHT22;4949;48.482;9.206;2023-02-28T22:52:18;0.60;66.90
9820;DHT22;4949;48.482;9.206;2023-02-28T22:57:21;0.60;66.50
9820;DHT22;4949;48.482;9.206;2023-02-28T23:02:24;0.60;66.80
9820;DHT22;4949;48.482;9.206;2023-02-28T23:07:25;0.50;66.90
9820;DHT22;4949;48.482;9.206;2023-02-28T23:12:28;0.50;66.90
9820;DHT22;4949;48.482;9.206;2023-02-28T23:17:34;0.50;66.90
9820;DHT22;4949;48.482;9.206;2023-02-28T23:22:37;0.40;67.40
9820;DHT22;4949;48.482;9.206;2023-02-28T23:27:40;0.40;67.20
9820;DHT22;4949;48.482;9.206;2023-02-28T23:32:41;0.20;67.50
9820;DHT22;4949;48.482;9.206;2023-02-28T23:37:42;0.20;67.50
9820;DHT22;4949;48.482;9.206;2023-02-28T23:42:49;0.20;67.90
9820;DHT22;4949;48.482;9.206;2023-02-28T23:47:50;0.20;68.00
9820;DHT22;4949;48.482;9.206;2023-02-28T23:52:53;0.10;68.30
9820;DHT22;4949;48.482;9.206;2023-02-28T23:57:59;0.10;67.90
